createdAt,value
2023-05-13T00:00:39.487Z,11.10
2023-05-13T00:03:08.205Z,11.10
2023-05-13T00:05:37.008Z,11.10
2023-05-13T00:08:07.554Z,11.10
2023-05-13T00:10:36.951Z,11.10
2023-05-13T00:13:05.492Z,11.10
2023-05-13T00:15:34.035Z,11.00
2023-05-13T00:18:02.702Z,11.00
2023-05-13T00:20:31.354Z,11.00
2023-05-13T00:22:59.985Z,11.00
2023-05-13T00:25:30.026Z,10.90
2023-05-13T00:27:58.602Z,10.90
2023-05-13T00:30:27.115Z,10.80
2023-05-13T00:32:55.900Z,10.80
2023-05-13T00:35:24.470Z,10.80
2023-05-13T00:37:53.034Z,10.70
2023-05-13T00:40:23.165Z,10.70
2023-05-13T00:42:53.669Z,10.70
2023-05-13T00:45:22.662Z,10.60
2023-05-13T00:47:51.372Z,10.60
2023-05-13T00:50:20.324Z,10.60
2023-05-13T00:52:51.049Z,10.50
2023-05-13T00:55:19.663Z,10.40
2023-05-13T00:57:49.257Z,10.40
2023-05-13T01:00:20.353Z,10.40
2023-05-13T01:02:55.762Z,10.30
2023-05-13T01:05:36.165Z,10.30
2023-05-13T01:08:12.008Z,10.30
2023-05-13T01:10:46.196Z,10.30
2023-05-13T01:13:18.638Z,10.30
2023-05-13T01:15:52.821Z,10.20
2023-05-13T01:47:19.505Z,10.10
2023-05-13T01:49:50.033Z,10.10
2023-05-13T01:52:18.688Z,10.10
2023-05-13T01:54:47.643Z,10.10
2023-05-13T01:57:17.054Z,10.10
2023-05-13T01:59:45.901Z,10.10
2023-05-13T02:02:14.953Z,10.10
2023-05-13T02:04:45.461Z,10.10
2023-05-13T02:07:14.679Z,10.10
2023-05-13T02:09:46.210Z,10.10
2023-05-13T02:12:14.929Z,10.10
2023-05-13T02:14:43.757Z,10.10
2023-05-13T02:17:12.505Z,10.10
2023-05-13T02:19:41.458Z,10.10
2023-05-13T02:22:12.221Z,10.10
2023-05-13T02:24:40.973Z,10.10
2023-05-13T02:27:12.752Z,10.10
2023-05-13T02:29:41.858Z,10.00
2023-05-13T03:59:57.446Z,16.30
2023-05-13T04:02:26.240Z,16.10
2023-05-13T04:04:55.264Z,16.30
2023-05-13T04:07:23.971Z,16.50
2023-05-13T04:09:54.509Z,16.70
2023-05-13T04:12:23.080Z,17.60
2023-05-13T04:14:51.640Z,17.50
2023-05-13T04:17:21.628Z,18.00
2023-05-13T04:19:53.505Z,17.90
2023-05-13T04:22:22.911Z,17.80
2023-05-13T04:24:56.496Z,18.40
2023-05-13T04:27:25.402Z,18.90
2023-05-13T04:30:00.435Z,18.50
2023-05-13T04:32:35.401Z,18.70
2023-05-13T04:35:04.700Z,17.90
2023-05-13T04:37:34.867Z,17.70
2023-05-13T04:40:09.243Z,17.70
2023-05-13T04:42:37.798Z,18.20
2023-05-13T05:01:12.571Z,15.80
2023-05-13T05:03:41.699Z,15.00
2023-05-13T05:06:10.609Z,14.80
2023-05-13T05:08:39.261Z,14.70
2023-05-13T05:11:07.971Z,15.10
2023-05-13T05:13:37.746Z,15.50
2023-05-13T05:16:23.363Z,16.00
2023-05-13T05:18:53.651Z,16.10
2023-05-13T05:21:22.554Z,15.90
2023-05-13T05:23:51.801Z,15.60
2023-05-13T05:26:22.473Z,15.50
2023-05-13T05:28:51.177Z,15.60
2023-05-13T05:31:19.950Z,15.80
2023-05-13T05:33:48.801Z,16.10
2023-05-13T05:36:23.495Z,16.40
2023-05-13T05:38:52.886Z,16.20
2023-05-13T05:41:23.522Z,16.20
2023-05-13T05:43:59.920Z,16.30
2023-05-13T05:46:29.315Z,16.70
2023-05-13T05:48:59.144Z,16.90
2023-05-13T05:51:30.412Z,16.70
2023-05-13T05:53:58.988Z,16.70
2023-05-13T05:56:27.945Z,16.80
2023-05-13T05:58:56.662Z,16.70
2023-05-13T06:01:25.344Z,16.70
2023-05-13T06:03:55.210Z,17.10
2023-05-13T06:06:24.449Z,17.00
2023-05-13T06:08:54.626Z,16.60
2023-05-13T06:11:23.515Z,16.10
2023-05-13T06:13:52.302Z,15.80
2023-05-13T06:16:20.958Z,15.80
2023-05-13T06:18:49.605Z,15.70
2023-05-13T06:21:18.437Z,16.70
2023-05-13T06:23:50.906Z,17.70
2023-05-13T06:26:24.068Z,18.10
2023-05-13T06:28:52.750Z,17.80
2023-05-13T06:31:21.546Z,17.30
2023-05-13T06:33:50.134Z,16.70
2023-05-13T06:36:18.777Z,16.40
2023-05-13T06:38:47.923Z,16.00
2023-05-13T06:41:16.525Z,15.70
2023-05-13T06:43:48.895Z,15.60
2023-05-13T06:46:23.358Z,15.90
2023-05-13T06:48:53.856Z,16.30
2023-05-13T06:51:22.628Z,16.90
2023-05-13T06:53:51.229Z,17.90
2023-05-13T06:56:19.889Z,19.20
2023-05-13T06:58:50.508Z,19.70
2023-05-13T07:01:19.271Z,19.90
2023-05-13T07:03:50.007Z,19.30
2023-05-13T07:06:18.924Z,19.00
2023-05-13T07:08:47.749Z,19.00
2023-05-13T07:11:16.621Z,19.10
2023-05-13T07:13:45.473Z,19.40
2023-05-13T07:16:15.754Z,20.90
2023-05-13T07:18:45.314Z,20.70
2023-05-13T07:21:15.171Z,20.40
2023-05-13T07:23:44.548Z,20.20
2023-05-13T07:26:13.400Z,20.70
2023-05-13T07:28:42.154Z,21.40
2023-05-13T07:31:11.002Z,21.80
2023-05-13T07:33:41.202Z,22.00
2023-05-13T07:36:10.003Z,21.30
2023-05-13T07:38:38.795Z,20.80
2023-05-13T07:41:07.455Z,20.50
2023-05-13T07:43:36.204Z,20.20
2023-05-13T07:46:04.885Z,20.10
2023-05-13T07:48:33.811Z,19.20
2023-05-13T07:51:04.525Z,18.50
2023-05-13T07:53:33.400Z,18.60
2023-05-13T07:56:02.201Z,18.50
2023-05-13T07:58:30.995Z,18.70
2023-05-13T08:00:59.719Z,18.60
2023-05-13T08:03:28.518Z,19.10
2023-05-13T08:05:57.446Z,19.50
2023-05-13T08:08:27.537Z,19.60
2023-05-13T08:10:56.253Z,19.70
2023-05-13T08:13:25.782Z,19.60
2023-05-13T08:16:04.448Z,19.80
2023-05-13T08:18:36.149Z,20.00
2023-05-13T08:21:06.085Z,20.00
2023-05-13T08:23:45.872Z,20.00
2023-05-13T08:26:19.520Z,19.90
2023-05-13T08:28:48.811Z,19.80
2023-05-13T08:31:29.993Z,19.60
2023-05-13T08:33:58.676Z,19.60
2023-05-13T08:36:27.259Z,19.70
2023-05-13T08:38:57.265Z,19.90
2023-05-13T08:41:25.806Z,19.90
2023-05-13T08:43:57.726Z,19.80
2023-05-13T08:46:39.086Z,19.70
2023-05-13T08:49:09.545Z,19.70
2023-05-13T08:51:38.311Z,19.50
2023-05-13T08:54:11.281Z,19.60
2023-05-13T08:56:40.106Z,19.70
2023-05-13T08:59:08.957Z,19.80
2023-05-13T09:01:38.670Z,19.80
2023-05-13T09:04:09.987Z,20.00
2023-05-13T09:06:38.854Z,20.30
2023-05-13T09:09:09.967Z,20.40
2023-05-13T09:11:43.950Z,20.30
2023-05-13T09:14:13.958Z,20.10
2023-05-13T09:16:44.184Z,19.90
2023-05-13T09:19:13.981Z,19.60
2023-05-13T09:21:45.793Z,19.40
2023-05-13T09:24:19.037Z,19.30
2023-05-13T09:26:49.092Z,19.30
2023-05-13T09:29:19.749Z,19.30
2023-05-13T09:31:50.627Z,19.00
2023-05-13T09:34:30.904Z,19.10
2023-05-13T09:37:03.315Z,19.00
2023-05-13T09:39:35.878Z,19.00
2023-05-13T09:42:05.692Z,19.10
2023-05-13T09:44:35.247Z,18.80
2023-05-13T09:47:04.764Z,18.90
2023-05-13T09:49:33.877Z,18.80
2023-05-13T09:52:02.664Z,19.00
2023-05-13T09:54:37.512Z,18.90
2023-05-13T09:57:07.035Z,19.10
2023-05-13T09:59:43.540Z,19.10
2023-05-13T10:11:52.973Z,19.20
2023-05-13T10:14:22.018Z,19.00
2023-05-13T10:16:51.732Z,18.70
2023-05-13T10:19:21.323Z,18.80
2023-05-13T10:21:52.002Z,18.90
2023-05-13T10:24:22.231Z,18.90
2023-05-13T10:26:54.526Z,18.90
2023-05-13T10:29:24.255Z,18.90
2023-05-13T10:31:54.000Z,18.90
2023-05-13T10:34:24.001Z,18.70
2023-05-13T10:37:05.177Z,18.60
2023-05-13T10:40:07.913Z,18.60
2023-05-13T10:42:43.858Z,18.50
2023-05-13T10:45:12.818Z,18.70
2023-05-13T10:47:41.470Z,18.90
2023-05-13T10:50:24.915Z,19.00
2023-05-13T10:52:57.385Z,19.10
2023-05-13T10:55:28.249Z,19.20
2023-05-13T10:58:10.917Z,19.40
2023-05-13T11:00:40.729Z,19.50
2023-05-13T11:03:29.353Z,19.50
2023-05-13T11:06:15.760Z,19.20
2023-05-13T11:08:45.899Z,19.40
2023-05-13T11:11:35.992Z,19.50
2023-05-13T11:14:09.890Z,19.50
2023-05-13T11:16:39.100Z,19.50
2023-05-13T11:19:19.758Z,19.30
2023-05-13T11:48:19.844Z,20.70
2023-05-13T11:50:48.548Z,20.80
2023-05-13T11:53:22.332Z,20.70
2023-05-13T11:55:51.824Z,20.60
2023-05-13T11:58:22.724Z,20.60
2023-05-13T12:00:52.853Z,20.20
2023-05-13T12:03:22.838Z,19.90
2023-05-13T12:05:51.824Z,19.50
2023-05-13T12:10:49.302Z,19.40
2023-05-13T12:13:18.079Z,19.50
2023-05-13T12:15:47.821Z,19.50
2023-05-13T12:18:16.552Z,19.70
2023-05-13T12:20:47.155Z,19.80
2023-05-13T12:23:15.783Z,19.80
2023-05-13T12:25:46.796Z,19.70
2023-05-13T12:28:17.846Z,19.70
2023-05-13T12:30:52.428Z,19.80
2023-05-13T12:33:22.874Z,19.70
2023-05-13T12:35:55.144Z,19.60
2023-05-13T12:38:25.650Z,19.60
2023-05-13T12:40:55.193Z,19.70
2023-05-13T12:43:24.963Z,19.70
2023-05-13T12:45:55.846Z,19.70
2023-05-13T12:48:26.070Z,19.80
2023-05-13T12:50:57.579Z,19.50
2023-05-13T12:53:26.938Z,19.60
2023-05-13T12:55:55.521Z,19.60
2023-05-13T12:58:24.211Z,19.50
2023-05-13T13:00:52.832Z,19.50
2023-05-13T13:03:24.251Z,19.50
2023-05-13T13:05:53.380Z,19.40
2023-05-13T13:08:23.994Z,19.30
2023-05-13T13:10:52.906Z,19.10
2023-05-13T13:13:21.570Z,19.10
2023-05-13T13:15:50.351Z,19.00
2023-05-13T13:18:19.822Z,19.00
2023-05-13T13:43:43.924Z,18.90
2023-05-13T13:46:12.622Z,18.80
2023-05-13T13:48:44.592Z,18.70
2023-05-13T13:51:13.325Z,18.50
2023-05-13T13:53:41.995Z,18.40
2023-05-13T13:56:10.653Z,18.40
2023-05-13T13:58:40.684Z,18.30
2023-05-13T14:01:10.830Z,18.30
2023-05-13T14:03:40.541Z,18.30
2023-05-13T14:06:09.593Z,18.40
2023-05-13T14:08:38.329Z,18.40
2023-05-13T14:11:06.814Z,18.40
2023-05-13T14:13:35.636Z,18.50
2023-05-13T14:16:04.577Z,18.50
2023-05-13T14:18:34.687Z,18.50
2023-05-13T14:21:03.486Z,18.40
2023-05-13T14:23:32.527Z,18.50
2023-05-13T14:26:01.960Z,18.50
2023-05-13T14:28:30.870Z,18.40
2023-05-13T14:31:00.020Z,18.40
2023-05-13T14:33:29.306Z,18.40
2023-05-13T14:35:59.702Z,18.40
2023-05-13T14:38:29.410Z,18.30
2023-05-13T14:40:58.425Z,18.30
2023-05-13T14:43:27.555Z,18.40
2023-05-13T14:45:56.599Z,18.50
2023-05-13T14:48:28.147Z,18.60
2023-05-13T14:50:58.713Z,18.70
2023-05-13T14:53:28.852Z,18.80
2023-05-13T14:55:58.049Z,19.00
2023-05-13T14:58:27.314Z,19.10
2023-05-13T15:00:56.239Z,19.20
2023-05-13T15:03:25.133Z,19.10
2023-05-13T15:05:54.513Z,19.00
2023-05-13T15:08:24.541Z,18.90
2023-05-13T15:10:53.080Z,18.80
2023-05-13T15:13:21.754Z,18.80
2023-05-13T15:15:50.341Z,18.90
2023-05-13T15:18:18.931Z,18.90
2023-05-13T15:20:47.613Z,18.80
2023-05-13T15:23:18.103Z,18.70
2023-05-13T15:25:48.489Z,18.70
2023-05-13T15:28:17.089Z,18.60
2023-05-13T15:30:45.828Z,18.50
2023-05-13T15:33:14.504Z,18.50
2023-05-13T15:35:43.748Z,18.40
2023-05-13T15:38:12.393Z,18.40
2023-05-13T15:40:41.196Z,18.40
2023-05-13T15:43:11.340Z,18.50
2023-05-13T15:45:41.207Z,18.60
2023-05-13T15:48:10.111Z,18.60
2023-05-13T15:50:38.707Z,18.60
2023-05-13T15:53:07.269Z,18.70
2023-05-13T15:55:37.501Z,18.70
2023-05-13T15:58:06.734Z,18.70
2023-05-13T16:00:36.719Z,18.70
2023-05-13T16:03:05.441Z,18.70
2023-05-13T16:05:34.027Z,18.60
2023-05-13T16:08:02.670Z,18.70
2023-05-13T16:10:31.278Z,18.60
2023-05-13T16:12:59.820Z,18.60
2023-05-13T16:15:28.399Z,18.60
2023-05-13T16:17:58.439Z,18.60
2023-05-13T16:20:27.181Z,18.50
2023-05-13T16:22:58.265Z,18.50
2023-05-13T16:25:29.011Z,18.40
2023-05-13T16:27:59.915Z,18.30
2023-05-13T16:30:29.121Z,18.30
2023-05-13T16:32:59.699Z,18.20
2023-05-13T16:35:28.306Z,18.10
2023-05-13T16:38:04.734Z,18.10
2023-05-13T16:40:34.559Z,18.10
2023-05-13T16:43:04.082Z,18.00
2023-05-13T16:45:32.923Z,18.00
2023-05-13T16:48:03.036Z,18.00
2023-05-13T16:50:32.238Z,18.00
2023-05-13T16:53:00.897Z,17.90
2023-05-13T16:55:29.541Z,17.80
2023-05-13T16:57:58.164Z,17.80
2023-05-13T17:00:26.957Z,17.70
2023-05-13T17:02:56.040Z,17.70
2023-05-13T17:05:26.055Z,17.60
2023-05-13T17:08:25.606Z,17.60
2023-05-13T17:10:54.289Z,17.50
2023-05-13T17:13:23.078Z,17.50
2023-05-13T17:15:51.968Z,17.50
2023-05-13T17:18:20.654Z,17.50
2023-05-13T17:20:51.628Z,17.40
2023-05-13T17:23:20.396Z,17.40
2023-05-13T17:25:49.202Z,17.40
2023-05-13T17:28:17.811Z,17.40
2023-05-13T17:30:46.450Z,17.50
2023-05-13T17:33:15.076Z,17.40
2023-05-13T17:35:43.805Z,17.40
2023-05-13T17:38:13.750Z,17.30
2023-05-13T17:40:42.304Z,17.30
2023-05-13T17:43:10.938Z,17.20
2023-05-13T17:45:39.779Z,17.10
2023-05-13T17:48:08.680Z,17.00
2023-05-13T17:50:37.297Z,16.90
2023-05-13T17:53:06.173Z,16.90
2023-05-13T17:55:36.184Z,16.80
2023-05-13T17:58:04.790Z,16.70
2023-05-13T18:00:33.410Z,16.60
2023-05-13T18:03:02.159Z,16.60
2023-05-13T18:05:31.009Z,16.50
2023-05-13T18:07:59.825Z,16.40
2023-05-13T18:10:28.937Z,16.40
2023-05-13T18:19:23.447Z,16.20
2023-05-13T18:21:51.975Z,16.10
2023-05-13T18:24:20.626Z,16.10
2023-05-13T18:26:49.346Z,16.00
2023-05-13T18:29:18.014Z,16.00
2023-05-13T18:31:46.639Z,15.90
2023-05-13T18:34:15.234Z,15.80
2023-05-13T18:36:45.950Z,15.70
2023-05-13T18:39:15.695Z,15.70
2023-05-13T18:41:46.454Z,15.60
2023-05-13T18:44:32.291Z,15.50
2023-05-13T18:47:01.030Z,15.30
2023-05-13T18:49:29.706Z,15.30
2023-05-13T18:51:59.808Z,15.20
2023-05-13T18:54:29.375Z,15.20
2023-05-13T18:56:58.267Z,15.10
2023-05-13T18:59:27.269Z,15.00
2023-05-13T19:01:56.211Z,14.90
2023-05-13T19:04:25.076Z,14.80
2023-05-13T19:06:53.966Z,14.70
2023-05-13T19:09:23.866Z,14.60
2023-05-13T19:11:52.489Z,14.60
2023-05-13T19:14:21.094Z,14.50
2023-05-13T19:16:49.768Z,14.50
2023-05-13T19:19:18.441Z,14.50
2023-05-13T19:21:47.014Z,14.50
2023-05-13T19:24:15.497Z,14.50
2023-05-13T19:26:45.520Z,14.50
2023-05-13T19:29:14.101Z,14.50
2023-05-13T19:31:42.626Z,14.40
2023-05-13T19:34:11.218Z,14.40
2023-05-13T19:36:39.858Z,14.30
2023-05-13T19:39:08.685Z,14.30
2023-05-13T19:41:37.951Z,14.30
2023-05-13T19:44:07.874Z,14.20
2023-05-13T19:46:36.729Z,14.20
2023-05-13T19:49:05.370Z,14.10
2023-05-13T19:51:33.960Z,14.10
2023-05-13T19:54:02.723Z,14.00
2023-05-13T19:56:32.194Z,14.00
2023-05-13T19:59:00.907Z,14.00
2023-05-13T20:01:32.027Z,14.00
2023-05-13T20:04:00.665Z,14.00
2023-05-13T20:06:29.462Z,14.00
2023-05-13T20:08:58.598Z,14.00
2023-05-13T20:11:27.193Z,13.90
2023-05-13T20:13:55.913Z,13.80
2023-05-13T20:16:24.511Z,13.80
2023-05-13T20:18:54.626Z,13.70
2023-05-13T20:21:23.214Z,13.60
2023-05-13T20:23:51.847Z,13.60
2023-05-13T20:26:20.344Z,13.70
2023-05-13T20:28:51.493Z,13.60
2023-05-13T20:31:20.176Z,13.60
2023-05-13T20:33:48.724Z,13.60
2023-05-13T20:36:18.886Z,13.40
2023-05-13T20:38:47.822Z,13.30
2023-05-13T20:41:16.535Z,13.20
2023-05-13T20:43:45.070Z,13.00
2023-05-13T20:46:17.016Z,13.00
2023-05-13T20:48:45.906Z,12.90
2023-05-13T20:51:14.566Z,12.80
2023-05-13T20:53:46.580Z,12.70
2023-05-13T20:56:15.186Z,12.70
2023-05-13T20:58:43.956Z,12.70
2023-05-13T21:01:12.757Z,12.70
2023-05-13T21:03:41.414Z,12.70
2023-05-13T21:06:10.067Z,12.60
2023-05-13T21:08:40.235Z,12.60
2023-05-13T21:11:10.692Z,12.50
2023-05-13T21:13:39.272Z,12.40
2023-05-13T21:16:08.283Z,12.30
2023-05-13T21:18:37.019Z,12.20
2023-05-13T21:21:08.729Z,12.20
2023-05-13T21:23:37.881Z,12.20
2023-05-13T21:26:07.168Z,12.20
2023-05-13T21:28:37.105Z,12.20
2023-05-13T21:31:06.428Z,12.30
2023-05-13T21:33:35.306Z,12.30
2023-05-13T21:36:03.854Z,12.30
2023-05-13T21:38:32.491Z,12.30
2023-05-13T21:41:01.307Z,12.20
2023-05-13T21:43:29.955Z,12.20
2023-05-13T21:45:59.972Z,12.10
2023-05-13T21:48:28.608Z,12.10
2023-05-13T21:50:57.193Z,12.00
2023-05-13T21:53:25.826Z,11.90
2023-05-13T21:55:55.829Z,11.90
2023-05-13T21:58:24.434Z,11.70
2023-05-13T22:00:53.841Z,11.60
2023-05-13T22:03:23.955Z,11.60
2023-05-13T22:05:52.580Z,11.60
2023-05-13T22:08:21.192Z,11.60
2023-05-13T22:10:49.776Z,11.60
2023-05-13T22:13:18.401Z,11.60
2023-05-13T22:15:46.959Z,11.50
2023-05-13T22:18:16.193Z,11.50
2023-05-13T22:20:46.182Z,11.40
2023-05-13T22:23:14.742Z,11.40
2023-05-13T22:25:43.301Z,11.40
2023-05-13T22:28:11.872Z,11.40
2023-05-13T22:30:40.430Z,11.40
2023-05-13T22:33:09.010Z,11.40
2023-05-13T22:35:39.336Z,11.40
2023-05-13T22:38:09.245Z,11.40
2023-05-13T22:40:38.143Z,11.30
2023-05-13T22:43:06.684Z,11.30
2023-05-13T22:45:35.221Z,11.20
2023-05-13T22:48:03.832Z,11.10
2023-05-13T22:50:32.548Z,11.10
2023-05-13T22:53:01.086Z,11.10
2023-05-13T22:55:31.251Z,11.00
2023-05-13T22:57:59.805Z,11.00
2023-05-13T23:00:28.695Z,11.00
2023-05-13T23:02:57.509Z,11.00
2023-05-13T23:50:12.819Z,10.30
2023-05-13T23:52:41.838Z,10.20
2023-05-13T23:55:10.611Z,10.20
2023-05-13T23:57:39.151Z,10.20
